Marion, NC

5:14 PM EDT on August 26, 2016 (GMT -0400)
Highway 70 E, Nebo, North Carolina | | Change Station

Elev 1339 ft 35.71 °N, 81.90 °W | Updated 58 seconds ago

Clear
Clear
93.4 °F
Feels Like 100 °F
N
3.2
Wind Variable Wind from South

Today
High -- | Low -- °F
--% Chance of Precip.
Yesterday
High -- | Low -- °F
Precip. -- in
Pressure 30.13 in
Visibility 10.0 miles
Clouds Clear
Heat Index 100 °F
Dew Point 71 °F
Humidity 48%
Rainfall 0.03 in
Snow Depth Not available.
6:55 AM 8:02 PM
Waning Crescent, 31% visible
METAR KMRN 262100Z AUTO 02003KT 10SM CLR 34/19 A3013 RMK AO2 T03350186
Pressure 30.13 in
Visibility 10.0 miles
Clouds Clear
Heat Index 100 °F
Dew Point 71 °F
Humidity 48%
Rainfall 0.03 in
Snow Depth Not available.
6:55 AM 8:02 PM
Waning Crescent, 31% visible
METAR KMRN 262100Z AUTO 02003KT 10SM CLR 34/19 A3013 RMK AO2 T03350186

10-Day Weather Forecast

Almanac

Astronomy

Aug. 26, 2016 Rise Set
Actual Time
Civil Twilight
Nautical Twilight
Astronomical Twilight
Moon
Length of Visible Light
Length of Day
Tomorrow will be .
, % of the Moon is Illuminated

Today's Extremes

State Highs State Lows

Community

WunderPhotos

Upload Photos

1,935,206 photos uploaded!

WunderBlog® & News

Nearby

Air Quality

  Air Quality AQ Index Pollutant
Not available.

Snow Depth

Station Depth Elevation

Earthquake Activity

City Distance Mag. Time & Date
Minimum magnitude displayed is 2.5.

Coastal Water Temperatures

Place Temperature

Stations

Nearby Weather Stations

Station Location Temp. Windchill Dew Point Humidity Wind Precip. Elev Updated Type
                   

Watches & Warnings

There are currently no watches in effect.